sensor_id;sensor_type;location;lat;lon;timestamp;temperature;humidity
60717;DHT22;46566;52.700;6.192;2023-05-16T00:00:27;9.70;99.90
60717;DHT22;46566;52.700;6.192;2023-05-16T00:02:53;9.70;99.90
60717;DHT22;46566;52.700;6.192;2023-05-16T00:05:19;9.70;99.90
60717;DHT22;46566;52.700;6.192;2023-05-16T00:07:45;9.70;99.90
60717;DHT22;46566;52.700;6.192;2023-05-16T00:10:12;9.70;99.90
60717;DHT22;46566;52.700;6.192;2023-05-16T00:12:38;9.60;99.90
60717;DHT22;46566;52.700;6.192;2023-05-16T00:15:05;9.60;99.90
60717;DHT22;46566;52.700;6.192;2023-05-16T00:17:34;9.60;99.90
60717;DHT22;46566;52.700;6.192;2023-05-16T00:20:03;9.60;99.90
60717;DHT22;46566;52.700;6.192;2023-05-16T00:22:36;9.60;99.90
60717;DHT22;46566;52.700;6.192;2023-05-16T00:25:02;9.60;99.90
60717;DHT22;46566;52.700;6.192;2023-05-16T00:27:28;9.50;99.90
60717;DHT22;46566;52.700;6.192;2023-05-16T00:29:54;9.50;99.90
60717;DHT22;46566;52.700;6.192;2023-05-16T00:32:20;9.50;99.90
60717;DHT22;46566;52.700;6.192;2023-05-16T00:34:46;9.50;99.90
60717;DHT22;46566;52.700;6.192;2023-05-16T00:37:13;9.40;99.90
60717;DHT22;46566;52.700;6.192;2023-05-16T00:39:39;9.40;99.90
60717;DHT22;46566;52.700;6.192;2023-05-16T00:42:05;9.40;99.90
60717;DHT22;46566;52.700;6.192;2023-05-16T00:44:31;9.30;99.90
60717;DHT22;46566;52.700;6.192;2023-05-16T00:46:57;9.30;99.90
60717;DHT22;46566;52.700;6.192;2023-05-16T00:49:24;9.20;99.90
60717;DHT22;46566;52.700;6.192;2023-05-16T00:51:51;9.20;99.90
60717;DHT22;46566;52.700;6.192;2023-05-16T00:54:20;9.20;99.90
60717;DHT22;46566;52.700;6.192;2023-05-16T00:56:46;9.20;99.90
60717;DHT22;46566;52.700;6.192;2023-05-16T00:59:12;9.10;99.90
60717;DHT22;46566;52.700;6.192;2023-05-16T01:01:38;9.10;99.90
60717;DHT22;46566;52.700;6.192;2023-05-16T01:04:06;9.10;99.90
60717;DHT22;46566;52.700;6.192;2023-05-16T01:06:35;9.10;99.90
60717;DHT22;46566;52.700;6.192;2023-05-16T01:19:59;9.00;99.90
60717;DHT22;46566;52.700;6.192;2023-05-16T01:28:01;8.80;99.90
60717;DHT22;46566;52.700;6.192;2023-05-16T01:30:33;8.80;99.90
60717;DHT22;46566;52.700;6.192;2023-05-16T01:33:00;8.70;99.90
60717;DHT22;46566;52.700;6.192;2023-05-16T01:35:25;8.70;99.90
60717;DHT22;46566;52.700;6.192;2023-05-16T01:37:59;8.70;99.90
60717;DHT22;46566;52.700;6.192;2023-05-16T01:40:50;8.70;99.90
60717;DHT22;46566;52.700;6.192;2023-05-16T01:43:24;8.70;99.90
60717;DHT22;46566;52.700;6.192;2023-05-16T01:45:59;8.60;99.90
60717;DHT22;46566;52.700;6.192;2023-05-16T01:48:34;8.60;99.90
60717;DHT22;46566;52.700;6.192;2023-05-16T01:51:03;8.60;99.90
60717;DHT22;46566;52.700;6.192;2023-05-16T01:53:35;8.60;99.90
60717;DHT22;46566;52.700;6.192;2023-05-16T01:56:02;8.50;99.90
60717;DHT22;46566;52.700;6.192;2023-05-16T01:58:32;8.50;99.90
60717;DHT22;46566;52.700;6.192;2023-05-16T02:01:02;8.50;99.90
60717;DHT22;46566;52.700;6.192;2023-05-16T02:03:32;8.50;99.90
60717;DHT22;46566;52.700;6.192;2023-05-16T02:05:58;8.50;99.90
60717;DHT22;46566;52.700;6.192;2023-05-16T02:08:24;8.40;99.90
60717;DHT22;46566;52.700;6.192;2023-05-16T02:10:53;8.40;99.90
60717;DHT22;46566;52.700;6.192;2023-05-16T02:13:20;8.40;99.90
60717;DHT22;46566;52.700;6.192;2023-05-16T02:15:45;8.40;99.90
60717;DHT22;46566;52.700;6.192;2023-05-16T02:18:11;8.30;99.90
60717;DHT22;46566;52.700;6.192;2023-05-16T02:20:37;8.30;99.90
60717;DHT22;46566;52.700;6.192;2023-05-16T02:23:04;8.30;99.90
60717;DHT22;46566;52.700;6.192;2023-05-16T02:25:31;8.30;99.90
60717;DHT22;46566;52.700;6.192;2023-05-16T02:27:56;8.30;99.90
60717;DHT22;46566;52.700;6.192;2023-05-16T02:30:22;8.30;99.90
60717;DHT22;46566;52.700;6.192;2023-05-16T02:32:48;8.20;99.90
60717;DHT22;46566;52.700;6.192;2023-05-16T02:35:14;8.20;99.90
60717;DHT22;46566;52.700;6.192;2023-05-16T02:37:40;8.20;99.90
60717;DHT22;46566;52.700;6.192;2023-05-16T02:40:07;8.20;99.90
60717;DHT22;46566;52.700;6.192;2023-05-16T02:42:35;8.20;99.90
60717;DHT22;46566;52.700;6.192;2023-05-16T02:45:01;8.20;99.90
60717;DHT22;46566;52.700;6.192;2023-05-16T02:47:27;8.10;99.90
60717;DHT22;46566;52.700;6.192;2023-05-16T02:49:53;8.10;99.90
60717;DHT22;46566;52.700;6.192;2023-05-16T02:52:19;8.10;99.90
60717;DHT22;46566;52.700;6.192;2023-05-16T02:54:45;8.10;99.90
60717;DHT22;46566;52.700;6.192;2023-05-16T02:57:10;8.10;99.90
60717;DHT22;46566;52.700;6.192;2023-05-16T02:59:37;8.10;99.90
60717;DHT22;46566;52.700;6.192;2023-05-16T03:02:03;8.10;99.90
60717;DHT22;46566;52.700;6.192;2023-05-16T03:04:28;8.10;99.90
60717;DHT22;46566;52.700;6.192;2023-05-16T03:06:54;8.10;99.90
60717;DHT22;46566;52.700;6.192;2023-05-16T03:09:20;8.10;99.90
60717;DHT22;46566;52.700;6.192;2023-05-16T03:11:46;8.10;99.90
60717;DHT22;46566;52.700;6.192;2023-05-16T03:14:12;8.10;99.90
60717;DHT22;46566;52.700;6.192;2023-05-16T03:16:38;8.00;99.90
60717;DHT22;46566;52.700;6.192;2023-05-16T03:19:04;8.00;99.90
60717;DHT22;46566;52.700;6.192;2023-05-16T03:21:32;8.00;99.90
60717;DHT22;46566;52.700;6.192;2023-05-16T03:23:58;8.00;99.90
60717;DHT22;46566;52.700;6.192;2023-05-16T03:26:24;8.00;99.90
60717;DHT22;46566;52.700;6.192;2023-05-16T03:28:50;8.00;99.90
60717;DHT22;46566;52.700;6.192;2023-05-16T03:31:16;8.00;99.90
60717;DHT22;46566;52.700;6.192;2023-05-16T03:33:42;8.00;99.90
60717;DHT22;46566;52.700;6.192;2023-05-16T03:36:08;8.00;99.90
60717;DHT22;46566;52.700;6.192;2023-05-16T03:38:34;7.90;99.90
60717;DHT22;46566;52.700;6.192;2023-05-16T03:41:00;7.90;99.90
60717;DHT22;46566;52.700;6.192;2023-05-16T03:43:26;7.90;99.90
60717;DHT22;46566;52.700;6.192;2023-05-16T03:45:52;7.90;99.90
60717;DHT22;46566;52.700;6.192;2023-05-16T03:48:18;7.90;99.90
60717;DHT22;46566;52.700;6.192;2023-05-16T03:50:43;7.90;99.90
60717;DHT22;46566;52.700;6.192;2023-05-16T03:53:10;7.90;99.90
60717;DHT22;46566;52.700;6.192;2023-05-16T03:55:36;7.80;99.90
60717;DHT22;46566;52.700;6.192;2023-05-16T03:58:02;7.80;99.90
60717;DHT22;46566;52.700;6.192;2023-05-16T04:00:27;7.80;99.90
60717;DHT22;46566;52.700;6.192;2023-05-16T04:02:53;7.80;99.90
60717;DHT22;46566;52.700;6.192;2023-05-16T04:05:19;7.80;99.90
60717;DHT22;46566;52.700;6.192;2023-05-16T04:07:45;7.80;99.90
60717;DHT22;46566;52.700;6.192;2023-05-16T04:10:11;7.80;99.90
60717;DHT22;46566;52.700;6.192;2023-05-16T04:12:37;7.80;99.90
60717;DHT22;46566;52.700;6.192;2023-05-16T04:15:03;7.80;99.90
60717;DHT22;46566;52.700;6.192;2023-05-16T04:17:29;7.80;99.90
60717;DHT22;46566;52.700;6.192;2023-05-16T04:19:55;7.80;99.90
60717;DHT22;46566;52.700;6.192;2023-05-16T04:22:21;7.80;99.90
60717;DHT22;46566;52.700;6.192;2023-05-16T04:24:47;7.80;99.90
60717;DHT22;46566;52.700;6.192;2023-05-16T04:27:13;7.80;99.90
60717;DHT22;46566;52.700;6.192;2023-05-16T04:29:39;7.80;99.90
60717;DHT22;46566;52.700;6.192;2023-05-16T04:32:05;7.80;99.90
60717;DHT22;46566;52.700;6.192;2023-05-16T04:34:32;7.90;99.90
60717;DHT22;46566;52.700;6.192;2023-05-16T04:36:59;7.80;99.90
60717;DHT22;46566;52.700;6.192;2023-05-16T04:39:24;7.90;99.90
60717;DHT22;46566;52.700;6.192;2023-05-16T04:41:51;7.90;99.90
60717;DHT22;46566;52.700;6.192;2023-05-16T04:44:16;7.90;99.90
60717;DHT22;46566;52.700;6.192;2023-05-16T04:46:42;7.90;99.90
60717;DHT22;46566;52.700;6.192;2023-05-16T04:49:08;7.90;99.90
60717;DHT22;46566;52.700;6.192;2023-05-16T04:51:35;7.90;99.90
60717;DHT22;46566;52.700;6.192;2023-05-16T04:54:01;8.00;99.90
60717;DHT22;46566;52.700;6.192;2023-05-16T04:56:27;8.00;99.90
60717;DHT22;46566;52.700;6.192;2023-05-16T04:58:52;8.00;99.90
60717;DHT22;46566;52.700;6.192;2023-05-16T05:01:19;8.00;99.90
60717;DHT22;46566;52.700;6.192;2023-05-16T05:03:44;8.10;99.90
60717;DHT22;46566;52.700;6.192;2023-05-16T05:06:10;8.10;99.90
60717;DHT22;46566;52.700;6.192;2023-05-16T05:08:36;8.20;99.90
60717;DHT22;46566;52.700;6.192;2023-05-16T05:11:02;8.20;99.90
60717;DHT22;46566;52.700;6.192;2023-05-16T05:13:27;8.20;99.90
60717;DHT22;46566;52.700;6.192;2023-05-16T05:15:53;8.30;99.90
60717;DHT22;46566;52.700;6.192;2023-05-16T05:18:19;8.30;99.90
60717;DHT22;46566;52.700;6.192;2023-05-16T05:20:44;8.30;99.90
60717;DHT22;46566;52.700;6.192;2023-05-16T05:23:10;8.40;99.90
60717;DHT22;46566;52.700;6.192;2023-05-16T05:25:37;8.40;99.90
60717;DHT22;46566;52.700;6.192;2023-05-16T05:28:03;8.50;99.90
60717;DHT22;46566;52.700;6.192;2023-05-16T05:30:28;8.50;99.90
60717;DHT22;46566;52.700;6.192;2023-05-16T05:32:55;8.60;99.90
60717;DHT22;46566;52.700;6.192;2023-05-16T05:35:20;8.60;99.90
60717;DHT22;46566;52.700;6.192;2023-05-16T05:37:46;8.60;99.90
60717;DHT22;46566;52.700;6.192;2023-05-16T05:40:12;8.70;99.90
60717;DHT22;46566;52.700;6.192;2023-05-16T05:42:38;8.70;99.90
60717;DHT22;46566;52.700;6.192;2023-05-16T05:45:04;8.80;99.90
60717;DHT22;46566;52.700;6.192;2023-05-16T05:47:30;8.80;99.90
60717;DHT22;46566;52.700;6.192;2023-05-16T05:49:57;8.80;99.90
60717;DHT22;46566;52.700;6.192;2023-05-16T05:52:23;8.90;99.90
60717;DHT22;46566;52.700;6.192;2023-05-16T05:54:49;8.90;99.90
60717;DHT22;46566;52.700;6.192;2023-05-16T05:57:15;9.00;99.90
60717;DHT22;46566;52.700;6.192;2023-05-16T05:59:40;9.00;99.90
60717;DHT22;46566;52.700;6.192;2023-05-16T06:02:07;9.00;99.90
60717;DHT22;46566;52.700;6.192;2023-05-16T06:04:32;9.10;99.90
60717;DHT22;46566;52.700;6.192;2023-05-16T06:06:58;9.10;99.90
60717;DHT22;46566;52.700;6.192;2023-05-16T06:09:24;9.20;99.90
60717;DHT22;46566;52.700;6.192;2023-05-16T06:11:50;9.30;99.90
60717;DHT22;46566;52.700;6.192;2023-05-16T06:14:15;9.30;99.90
60717;DHT22;46566;52.700;6.192;2023-05-16T06:16:41;9.40;99.90
60717;DHT22;46566;52.700;6.192;2023-05-16T06:19:07;9.40;99.90
60717;DHT22;46566;52.700;6.192;2023-05-16T06:21:33;9.50;99.90
60717;DHT22;46566;52.700;6.192;2023-05-16T06:23:58;9.50;99.90
60717;DHT22;46566;52.700;6.192;2023-05-16T06:26:24;9.60;99.90
60717;DHT22;46566;52.700;6.192;2023-05-16T06:28:50;9.70;99.90
60717;DHT22;46566;52.700;6.192;2023-05-16T06:31:16;9.70;99.90
60717;DHT22;46566;52.700;6.192;2023-05-16T06:33:41;9.80;99.90
60717;DHT22;46566;52.700;6.192;2023-05-16T06:36:07;9.90;99.90
60717;DHT22;46566;52.700;6.192;2023-05-16T06:38:33;10.10;99.90
60717;DHT22;46566;52.700;6.192;2023-05-16T06:40:58;10.10;99.90
60717;DHT22;46566;52.700;6.192;2023-05-16T06:43:24;10.20;99.90
60717;DHT22;46566;52.700;6.192;2023-05-16T06:45:50;10.20;99.90
60717;DHT22;46566;52.700;6.192;2023-05-16T06:48:16;10.40;99.90
60717;DHT22;46566;52.700;6.192;2023-05-16T06:50:46;10.50;99.90
60717;DHT22;46566;52.700;6.192;2023-05-16T06:53:11;10.70;99.90
60717;DHT22;46566;52.700;6.192;2023-05-16T06:55:37;10.70;99.90
60717;DHT22;46566;52.700;6.192;2023-05-16T06:58:03;10.80;99.90
60717;DHT22;46566;52.700;6.192;2023-05-16T07:00:29;10.80;99.90
60717;DHT22;46566;52.700;6.192;2023-05-16T07:02:54;10.70;99.90
60717;DHT22;46566;52.700;6.192;2023-05-16T07:05:20;10.60;99.90
60717;DHT22;46566;52.700;6.192;2023-05-16T07:07:46;10.60;99.90
60717;DHT22;46566;52.700;6.192;2023-05-16T07:10:14;10.60;99.90
60717;DHT22;46566;52.700;6.192;2023-05-16T07:12:41;10.50;99.90
60717;DHT22;46566;52.700;6.192;2023-05-16T07:15:07;10.50;99.90
60717;DHT22;46566;52.700;6.192;2023-05-16T07:17:33;10.60;99.90
60717;DHT22;46566;52.700;6.192;2023-05-16T07:19:59;10.60;99.90
60717;DHT22;46566;52.700;6.192;2023-05-16T07:22:25;10.70;99.90
60717;DHT22;46566;52.700;6.192;2023-05-16T07:24:50;10.80;99.90
60717;DHT22;46566;52.700;6.192;2023-05-16T07:27:18;10.80;99.90
60717;DHT22;46566;52.700;6.192;2023-05-16T07:29:44;11.00;99.90
60717;DHT22;46566;52.700;6.192;2023-05-16T07:32:10;11.10;99.90
60717;DHT22;46566;52.700;6.192;2023-05-16T07:34:36;11.20;99.90
60717;DHT22;46566;52.700;6.192;2023-05-16T07:37:02;11.40;99.90
60717;DHT22;46566;52.700;6.192;2023-05-16T07:39:27;11.50;99.90
60717;DHT22;46566;52.700;6.192;2023-05-16T07:41:53;11.60;99.90
60717;DHT22;46566;52.700;6.192;2023-05-16T07:44:19;11.70;99.90
60717;DHT22;46566;52.700;6.192;2023-05-16T07:46:45;11.70;99.90
60717;DHT22;46566;52.700;6.192;2023-05-16T07:49:10;11.70;99.90
60717;DHT22;46566;52.700;6.192;2023-05-16T07:51:36;11.80;99.90
60717;DHT22;46566;52.700;6.192;2023-05-16T07:54:02;11.90;99.90
60717;DHT22;46566;52.700;6.192;2023-05-16T07:56:27;12.10;99.90
60717;DHT22;46566;52.700;6.192;2023-05-16T07:58:54;12.20;99.90
60717;DHT22;46566;52.700;6.192;2023-05-16T08:01:20;12.30;99.90
60717;DHT22;46566;52.700;6.192;2023-05-16T08:03:45;12.40;99.90
60717;DHT22;46566;52.700;6.192;2023-05-16T08:06:11;12.50;99.90
60717;DHT22;46566;52.700;6.192;2023-05-16T08:08:37;12.80;99.90
60717;DHT22;46566;52.700;6.192;2023-05-16T08:11:03;13.60;99.90
60717;DHT22;46566;52.700;6.192;2023-05-16T08:13:30;14.50;99.90
60717;DHT22;46566;52.700;6.192;2023-05-16T08:15:56;15.30;99.90
60717;DHT22;46566;52.700;6.192;2023-05-16T08:18:21;16.10;99.90
60717;DHT22;46566;52.700;6.192;2023-05-16T08:20:47;16.80;83.00
60717;DHT22;46566;52.700;6.192;2023-05-16T08:23:13;17.10;80.60
60717;DHT22;46566;52.700;6.192;2023-05-16T08:25:39;17.40;79.20
60717;DHT22;46566;52.700;6.192;2023-05-16T08:28:04;17.60;71.70
60717;DHT22;46566;52.700;6.192;2023-05-16T08:30:30;18.10;70.40
60717;DHT22;46566;52.700;6.192;2023-05-16T08:32:56;18.40;66.70
60717;DHT22;46566;52.700;6.192;2023-05-16T08:35:22;18.80;63.10
60717;DHT22;46566;52.700;6.192;2023-05-16T08:38:13;18.50;61.40
60717;DHT22;46566;52.700;6.192;2023-05-16T08:40:39;17.80;65.70
60717;DHT22;46566;52.700;6.192;2023-05-16T08:43:05;16.90;70.30
60717;DHT22;46566;52.700;6.192;2023-05-16T08:45:31;16.10;90.80
60717;DHT22;46566;52.700;6.192;2023-05-16T08:51:01;14.80;99.90
60717;DHT22;46566;52.700;6.192;2023-05-16T08:53:54;15.00;99.90
60717;DHT22;46566;52.700;6.192;2023-05-16T08:56:26;15.70;99.90
60717;DHT22;46566;52.700;6.192;2023-05-16T08:58:52;16.30;90.80
60717;DHT22;46566;52.700;6.192;2023-05-16T09:04:33;17.20;77.20
60717;DHT22;46566;52.700;6.192;2023-05-16T09:09:45;18.60;64.50
60717;DHT22;46566;52.700;6.192;2023-05-16T09:12:11;18.70;64.50
60717;DHT22;46566;52.700;6.192;2023-05-16T09:14:37;18.30;63.50
60717;DHT22;46566;52.700;6.192;2023-05-16T09:17:07;18.10;65.50
60717;DHT22;46566;52.700;6.192;2023-05-16T09:23:13;17.10;65.80
60717;DHT22;46566;52.700;6.192;2023-05-16T09:25:39;17.20;67.80
60717;DHT22;46566;52.700;6.192;2023-05-16T09:28:09;17.20;66.50
60717;DHT22;46566;52.700;6.192;2023-05-16T09:33:40;17.50;66.40
60717;DHT22;46566;52.700;6.192;2023-05-16T09:36:07;17.80;65.40
60717;DHT22;46566;52.700;6.192;2023-05-16T09:41:42;17.80;66.30
60717;DHT22;46566;52.700;6.192;2023-05-16T09:47:04;17.90;66.20
60717;DHT22;46566;52.700;6.192;2023-05-16T09:49:30;17.50;63.70
60717;DHT22;46566;52.700;6.192;2023-05-16T09:52:20;17.20;66.20
60717;DHT22;46566;52.700;6.192;2023-05-16T09:54:46;16.80;66.40
60717;DHT22;46566;52.700;6.192;2023-05-16T10:03:46;16.20;77.80
60717;DHT22;46566;52.700;6.192;2023-05-16T10:06:12;15.80;84.80
60717;DHT22;46566;52.700;6.192;2023-05-16T10:08:40;15.60;98.00
60717;DHT22;46566;52.700;6.192;2023-05-16T10:11:06;15.30;96.60
60717;DHT22;46566;52.700;6.192;2023-05-16T10:13:57;15.10;99.90
60717;DHT22;46566;52.700;6.192;2023-05-16T10:16:24;14.90;99.90
60717;DHT22;46566;52.700;6.192;2023-05-16T10:18:51;14.80;99.90
60717;DHT22;46566;52.700;6.192;2023-05-16T10:21:18;15.00;99.90
60717;DHT22;46566;52.700;6.192;2023-05-16T10:24:06;15.30;99.90
60717;DHT22;46566;52.700;6.192;2023-05-16T10:26:35;15.60;99.90
60717;DHT22;46566;52.700;6.192;2023-05-16T10:29:02;16.00;92.00
60717;DHT22;46566;52.700;6.192;2023-05-16T10:31:53;16.20;79.90
60717;DHT22;46566;52.700;6.192;2023-05-16T10:34:19;16.20;78.20
60717;DHT22;46566;52.700;6.192;2023-05-16T10:36:45;16.20;81.60
60717;DHT22;46566;52.700;6.192;2023-05-16T10:39:12;16.50;78.10
60717;DHT22;46566;52.700;6.192;2023-05-16T10:41:56;16.90;71.70
60717;DHT22;46566;52.700;6.192;2023-05-16T11:05:49;16.30;85.30
60717;DHT22;46566;52.700;6.192;2023-05-16T11:08:16;16.70;73.50
60717;DHT22;46566;52.700;6.192;2023-05-16T11:10:41;16.80;69.80
60717;DHT22;46566;52.700;6.192;2023-05-16T11:13:07;17.00;68.70
60717;DHT22;46566;52.700;6.192;2023-05-16T14:42:20;15.40;99.70
60717;DHT22;46566;52.700;6.192;2023-05-16T14:44:46;15.30;95.10
60717;DHT22;46566;52.700;6.192;2023-05-16T14:47:36;15.20;97.60
60717;DHT22;46566;52.700;6.192;2023-05-16T14:50:02;15.20;98.30
60717;DHT22;46566;52.700;6.192;2023-05-16T14:52:28;15.30;94.00
60717;DHT22;46566;52.700;6.192;2023-05-16T14:54:54;15.30;95.30
60717;DHT22;46566;52.700;6.192;2023-05-16T14:57:38;15.40;96.70
60717;DHT22;46566;52.700;6.192;2023-05-16T15:00:04;15.30;94.00
60717;DHT22;46566;52.700;6.192;2023-05-16T15:02:31;15.30;90.60
60717;DHT22;46566;52.700;6.192;2023-05-16T15:04:57;15.30;89.30
60717;DHT22;46566;52.700;6.192;2023-05-16T15:07:23;15.30;88.00
60717;DHT22;46566;52.700;6.192;2023-05-16T15:12:54;15.10;85.90
60717;DHT22;46566;52.700;6.192;2023-05-16T15:18:14;15.10;93.60
60717;DHT22;46566;52.700;6.192;2023-05-16T15:20:40;15.00;95.70
60717;DHT22;46566;52.700;6.192;2023-05-16T15:23:05;15.10;96.40
60717;DHT22;46566;52.700;6.192;2023-05-16T15:25:57;15.00;96.80
60717;DHT22;46566;52.700;6.192;2023-05-16T15:28:22;14.90;95.70
60717;DHT22;46566;52.700;6.192;2023-05-16T15:30:50;14.90;97.00
60717;DHT22;46566;52.700;6.192;2023-05-16T15:33:15;14.80;99.10
60717;DHT22;46566;52.700;6.192;2023-05-16T15:36:07;14.80;99.90
60717;DHT22;46566;52.700;6.192;2023-05-16T15:38:32;14.80;99.90
60717;DHT22;46566;52.700;6.192;2023-05-16T15:40:59;14.80;97.40
60717;DHT22;46566;52.700;6.192;2023-05-16T15:43:25;14.80;97.80
60717;DHT22;46566;52.700;6.192;2023-05-16T15:48:55;14.60;97.50
60717;DHT22;46566;52.700;6.192;2023-05-16T15:51:36;14.60;99.90
60717;DHT22;46566;52.700;6.192;2023-05-16T15:54:02;14.50;99.90
60717;DHT22;46566;52.700;6.192;2023-05-16T15:56:27;14.40;99.90
60717;DHT22;46566;52.700;6.192;2023-05-16T15:58:54;14.30;99.90
60717;DHT22;46566;52.700;6.192;2023-05-16T16:01:20;14.10;99.90
60717;DHT22;46566;52.700;6.192;2023-05-16T16:04:11;13.80;99.90
60717;DHT22;46566;52.700;6.192;2023-05-16T16:06:37;13.50;99.90
60717;DHT22;46566;52.700;6.192;2023-05-16T16:09:02;13.20;99.90
60717;DHT22;46566;52.700;6.192;2023-05-16T16:11:28;13.10;99.90
60717;DHT22;46566;52.700;6.192;2023-05-16T16:14:20;13.00;99.90
60717;DHT22;46566;52.700;6.192;2023-05-16T16:16:46;13.00;99.90
60717;DHT22;46566;52.700;6.192;2023-05-16T16:19:12;13.00;99.90
60717;DHT22;46566;52.700;6.192;2023-05-16T16:21:37;13.00;99.90
60717;DHT22;46566;52.700;6.192;2023-05-16T16:24:29;13.00;99.90
60717;DHT22;46566;52.700;6.192;2023-05-16T16:26:55;13.00;99.90
60717;DHT22;46566;52.700;6.192;2023-05-16T16:29:20;13.10;99.90
60717;DHT22;46566;52.700;6.192;2023-05-16T16:31:46;13.10;99.90
60717;DHT22;46566;52.700;6.192;2023-05-16T16:34:37;13.10;99.90
60717;DHT22;46566;52.700;6.192;2023-05-16T16:37:02;13.10;99.90
60717;DHT22;46566;52.700;6.192;2023-05-16T16:39:28;13.10;99.90
60717;DHT22;46566;52.700;6.192;2023-05-16T16:42:12;13.10;99.90
60717;DHT22;46566;52.700;6.192;2023-05-16T16:45:03;13.20;99.90
60717;DHT22;46566;52.700;6.192;2023-05-16T16:47:29;13.20;99.90
60717;DHT22;46566;52.700;6.192;2023-05-16T16:50:23;13.30;99.90
60717;DHT22;46566;52.700;6.192;2023-05-16T16:52:49;13.30;99.90
60717;DHT22;46566;52.700;6.192;2023-05-16T16:55:14;13.40;99.90
60717;DHT22;46566;52.700;6.192;2023-05-16T16:58:07;13.40;99.90
60717;DHT22;46566;52.700;6.192;2023-05-16T17:00:33;13.40;99.90
60717;DHT22;46566;52.700;6.192;2023-05-16T17:02:59;13.40;99.90
60717;DHT22;46566;52.700;6.192;2023-05-16T17:05:24;13.40;99.90
60717;DHT22;46566;52.700;6.192;2023-05-16T17:08:09;13.40;99.90
60717;DHT22;46566;52.700;6.192;2023-05-16T17:10:35;13.40;99.90
60717;DHT22;46566;52.700;6.192;2023-05-16T17:13:01;13.40;99.90
60717;DHT22;46566;52.700;6.192;2023-05-16T17:15:31;13.40;99.90
60717;DHT22;46566;52.700;6.192;2023-05-16T17:18:16;13.40;99.90
60717;DHT22;46566;52.700;6.192;2023-05-16T17:20:42;13.40;99.90
60717;DHT22;46566;52.700;6.192;2023-05-16T17:23:07;13.40;99.90
60717;DHT22;46566;52.700;6.192;2023-05-16T17:25:33;13.30;99.90
60717;DHT22;46566;52.700;6.192;2023-05-16T17:27:59;13.30;99.90
60717;DHT22;46566;52.700;6.192;2023-05-16T17:30:50;13.30;99.90
60717;DHT22;46566;52.700;6.192;2023-05-16T17:33:18;13.20;99.90
60717;DHT22;46566;52.700;6.192;2023-05-16T17:35:43;13.20;99.90
60717;DHT22;46566;52.700;6.192;2023-05-16T17:38:10;13.20;99.90
60717;DHT22;46566;52.700;6.192;2023-05-16T17:41:02;13.20;99.90
60717;DHT22;46566;52.700;6.192;2023-05-16T17:43:31;13.10;99.90
60717;DHT22;46566;52.700;6.192;2023-05-16T17:45:59;13.10;99.90
60717;DHT22;46566;52.700;6.192;2023-05-16T17:48:40;13.10;99.90
60717;DHT22;46566;52.700;6.192;2023-05-16T17:51:09;13.10;99.90
60717;DHT22;46566;52.700;6.192;2023-05-16T17:53:34;13.10;99.90
60717;DHT22;46566;52.700;6.192;2023-05-16T17:56:02;13.10;99.90
60717;DHT22;46566;52.700;6.192;2023-05-16T17:58:28;13.10;99.90
60717;DHT22;46566;52.700;6.192;2023-05-16T18:01:19;13.10;99.90
60717;DHT22;46566;52.700;6.192;2023-05-16T18:06:42;13.10;99.90
60717;DHT22;46566;52.700;6.192;2023-05-16T18:09:11;13.20;99.90
60717;DHT22;46566;52.700;6.192;2023-05-16T18:11:39;13.20;99.90
60717;DHT22;46566;52.700;6.192;2023-05-16T18:14:06;13.20;99.90
60717;DHT22;46566;52.700;6.192;2023-05-16T18:17:02;13.20;99.90
60717;DHT22;46566;52.700;6.192;2023-05-16T18:19:28;13.10;99.90
60717;DHT22;46566;52.700;6.192;2023-05-16T18:21:55;13.10;99.90
60717;DHT22;46566;52.700;6.192;2023-05-16T18:24:21;13.10;99.90
60717;DHT22;46566;52.700;6.192;2023-05-16T18:27:12;13.00;99.90
60717;DHT22;46566;52.700;6.192;2023-05-16T18:29:41;13.00;99.90
60717;DHT22;46566;52.700;6.192;2023-05-16T18:41:13;12.90;99.90
60717;DHT22;46566;52.700;6.192;2023-05-16T18:44:04;12.80;99.90
60717;DHT22;46566;52.700;6.192;2023-05-16T18:46:31;12.80;99.90
60717;DHT22;46566;52.700;6.192;2023-05-16T18:48:56;12.80;99.90
60717;DHT22;46566;52.700;6.192;2023-05-16T18:51:23;12.80;99.90
60717;DHT22;46566;52.700;6.192;2023-05-16T18:54:14;12.80;99.90
60717;DHT22;46566;52.700;6.192;2023-05-16T18:56:40;12.70;99.90
60717;DHT22;46566;52.700;6.192;2023-05-16T18:59:07;12.70;99.90
60717;DHT22;46566;52.700;6.192;2023-05-16T19:01:33;12.70;99.90
60717;DHT22;46566;52.700;6.192;2023-05-16T19:04:24;12.60;99.90
60717;DHT22;46566;52.700;6.192;2023-05-16T19:06:50;12.60;99.90
60717;DHT22;46566;52.700;6.192;2023-05-16T19:09:19;12.60;99.90
60717;DHT22;46566;52.700;6.192;2023-05-16T19:23:07;12.50;99.90
60717;DHT22;46566;52.700;6.192;2023-05-16T19:26:22;12.50;99.90
60717;DHT22;46566;52.700;6.192;2023-05-16T19:28:48;12.50;99.90
60717;DHT22;46566;52.700;6.192;2023-05-16T19:55:24;12.20;99.90
60717;DHT22;46566;52.700;6.192;2023-05-16T19:57:53;12.10;99.90
60717;DHT22;46566;52.700;6.192;2023-05-16T20:00:19;12.10;99.90
60717;DHT22;46566;52.700;6.192;2023-05-16T20:02:46;12.10;99.90
60717;DHT22;46566;52.700;6.192;2023-05-16T20:05:12;12.10;99.90
60717;DHT22;46566;52.700;6.192;2023-05-16T20:07:39;12.10;99.90
60717;DHT22;46566;52.700;6.192;2023-05-16T20:10:08;12.10;99.90
60717;DHT22;46566;52.700;6.192;2023-05-16T20:12:37;12.10;99.90
60717;DHT22;46566;52.700;6.192;2023-05-16T20:15:03;12.00;99.90
60717;DHT22;46566;52.700;6.192;2023-05-16T20:17:33;12.00;99.90
60717;DHT22;46566;52.700;6.192;2023-05-16T20:19:58;12.00;99.90
60717;DHT22;46566;52.700;6.192;2023-05-16T20:22:24;11.90;99.90
60717;DHT22;46566;52.700;6.192;2023-05-16T20:24:50;11.90;99.90
60717;DHT22;46566;52.700;6.192;2023-05-16T20:27:16;11.90;99.90
60717;DHT22;46566;52.700;6.192;2023-05-16T20:29:41;11.80;99.90
60717;DHT22;46566;52.700;6.192;2023-05-16T20:32:07;11.80;99.90
60717;DHT22;46566;52.700;6.192;2023-05-16T20:34:33;11.70;99.90
60717;DHT22;46566;52.700;6.192;2023-05-16T20:36:58;11.70;99.90
60717;DHT22;46566;52.700;6.192;2023-05-16T20:39:27;11.70;99.90
60717;DHT22;46566;52.700;6.192;2023-05-16T20:41:56;11.60;99.90
60717;DHT22;46566;52.700;6.192;2023-05-16T20:44:21;11.60;99.90
60717;DHT22;46566;52.700;6.192;2023-05-16T20:46:48;11.50;99.90
60717;DHT22;46566;52.700;6.192;2023-05-16T20:49:14;11.40;99.90
60717;DHT22;46566;52.700;6.192;2023-05-16T20:51:39;11.40;99.90
60717;DHT22;46566;52.700;6.192;2023-05-16T20:54:05;11.40;99.90
60717;DHT22;46566;52.700;6.192;2023-05-16T20:56:31;11.30;99.90
60717;DHT22;46566;52.700;6.192;2023-05-16T20:58:56;11.30;99.90
60717;DHT22;46566;52.700;6.192;2023-05-16T21:01:22;11.30;99.90
60717;DHT22;46566;52.700;6.192;2023-05-16T21:03:51;11.20;99.90
60717;DHT22;46566;52.700;6.192;2023-05-16T21:06:16;11.20;99.90
60717;DHT22;46566;52.700;6.192;2023-05-16T21:08:42;11.10;99.90
60717;DHT22;46566;52.700;6.192;2023-05-16T21:11:08;11.10;99.90
60717;DHT22;46566;52.700;6.192;2023-05-16T21:13:33;11.10;99.90